Time;durP1;ratioP1;P1;durP2;ratioP2;P2;SDS_P1;SDS_P2;PMS_P1;PMS_P2;Temp;Humidity;BMP_temperature;BMP_pressure;BME280_temperature;BME280_humidity;BME280_pressure;Samples;Min_cycle;Max_cycle;Signal;HPM_P1;HPM_P2
2022/08/10 00:01:49;;;;;;;0.50;0.50;;;19.00;92.70;;;;;;5029663;28;20497;-59
2022/08/10 00:04:17;;;;;;;0.63;0.63;;;18.90;92.70;;;;;;5029407;28;20435;-59
2022/08/10 00:06:47;;;;;;;0.63;0.63;;;18.90;93.10;;;;;;5029801;28;20519;-59
2022/08/10 00:09:14;;;;;;;0.60;0.60;;;18.80;93.10;;;;;;5011850;28;20431;-59
2022/08/10 00:11:41;;;;;;;0.43;0.43;;;18.80;93.20;;;;;;5010262;28;20467;-59
2022/08/10 00:14:08;;;;;;;0.50;0.50;;;18.70;93.10;;;;;;5010151;28;20436;-59
2022/08/10 00:16:34;;;;;;;0.65;0.65;;;18.70;93.20;;;;;;5010169;28;20441;-59
2022/08/10 00:19:01;;;;;;;0.55;0.55;;;18.80;93.20;;;;;;5014912;28;20431;-59
2022/08/10 00:21:30;;;;;;;0.60;0.55;;;18.80;93.30;;;;;;5029601;28;20431;-59
2022/08/10 00:24:00;;;;;;;0.50;0.50;;;18.70;93.20;;;;;;5028728;28;20457;-59
2022/08/10 00:26:30;;;;;;;0.70;0.65;;;18.70;93.20;;;;;;5029704;28;20423;-59
2022/08/10 00:29:19;;;;;;;0.50;0.50;;;18.70;93.30;;;;;;5029466;28;20841;-59
2022/08/10 00:31:46;;;;;;;0.65;0.65;;;18.70;93.50;;;;;;5029490;28;20477;-59
2022/08/10 00:34:29;;;;;;;0.50;0.40;;;18.60;93.50;;;;;;5027751;28;20427;-59
2022/08/10 00:36:56;;;;;;;0.57;0.57;;;18.60;93.50;;;;;;5029194;28;20427;-59
2022/08/10 00:39:23;;;;;;;0.52;0.52;;;18.60;93.50;;;;;;5029500;28;20510;-59
2022/08/10 00:41:51;;;;;;;0.60;0.60;;;18.60;93.50;;;;;;5022581;28;20496;-59
2022/08/10 00:44:45;;;;;;;0.55;0.55;;;18.60;93.60;;;;;;5023319;28;20510;-59
2022/08/10 00:47:13;;;;;;;0.60;0.60;;;18.60;93.50;;;;;;5029483;28;20960;-59
2022/08/10 00:49:59;;;;;;;0.63;0.63;;;18.50;93.60;;;;;;5029214;28;20423;-59
2022/08/10 00:52:32;;;;;;;0.60;0.60;;;18.50;93.60;;;;;;5027682;28;20431;-59
2022/08/10 00:55:01;;;;;;;0.70;0.70;;;18.60;93.70;;;;;;5027851;28;20434;-59
2022/08/10 00:57:29;;;;;;;1.10;0.60;;;18.50;93.70;;;;;;5024919;28;20430;-59
2022/08/10 00:59:56;;;;;;;0.70;0.70;;;18.50;93.70;;;;;;5026280;28;20485;-59
2022/08/10 01:02:28;;;;;;;0.60;0.60;;;18.50;93.80;;;;;;5032418;28;20438;-59
2022/08/10 01:04:56;;;;;;;0.70;0.70;;;18.50;93.70;;;;;;5032381;28;20426;-59
2022/08/10 01:08:00;;;;;;;0.50;0.50;;;18.50;93.80;;;;;;5033013;28;20489;-59
2022/08/10 01:10:32;;;;;;;0.50;0.50;;;18.50;93.70;;;;;;5032675;28;20518;-59
2022/08/10 01:13:26;;;;;;;0.60;0.60;;;18.50;93.70;;;;;;5032197;28;20525;-59
2022/08/10 01:15:55;;;;;;;3.63;0.93;;;18.50;93.80;;;;;;5047783;28;20929;-59
2022/08/10 01:18:33;;;;;;;0.40;0.40;;;18.40;93.90;;;;;;5021316;28;20527;-59
2022/08/10 01:21:22;;;;;;;0.50;0.50;;;18.40;93.90;;;;;;5043535;28;20428;-59
2022/08/10 01:24:04;;;;;;;0.60;0.60;;;18.40;93.90;;;;;;5021915;28;20434;-59
2022/08/10 01:26:52;;;;;;;0.70;0.70;;;18.40;94.00;;;;;;5032658;28;20431;-58
2022/08/10 01:29:34;;;;;;;0.50;0.50;;;18.40;94.10;;;;;;5032323;28;21030;-59
2022/08/10 01:32:10;;;;;;;0.80;0.63;;;18.30;94.20;;;;;;5032592;28;20479;-59
2022/08/10 01:34:49;;;;;;;0.60;0.60;;;18.10;94.30;;;;;;5032080;28;20513;-59
2022/08/10 01:37:20;;;;;;;0.90;0.90;;;18.10;94.60;;;;;;5027808;28;20441;-59
2022/08/10 01:39:54;;;;;;;0.50;0.50;;;18.10;94.60;;;;;;5012313;28;20480;-59
2022/08/10 01:42:22;;;;;;;0.50;0.50;;;18.00;94.60;;;;;;5037142;28;20434;-59
2022/08/10 01:44:54;;;;;;;0.50;0.50;;;18.00;94.70;;;;;;5037976;28;20433;-59
2022/08/10 01:50:24;;;;;;;0.63;0.63;;;17.90;94.90;;;;;;5051654;28;20469;-59
2022/08/10 01:52:54;;;;;;;0.90;0.60;;;17.90;95.00;;;;;;5051828;28;20429;-59
2022/08/10 01:55:22;;;;;;;0.77;0.77;;;17.90;95.00;;;;;;5051908;28;20512;-59
2022/08/10 01:57:52;;;;;;;0.60;0.60;;;17.80;95.10;;;;;;5032613;28;20462;-59
2022/08/10 02:00:19;;;;;;;0.57;0.57;;;17.80;95.20;;;;;;5031875;28;20485;-59
2022/08/10 02:02:47;;;;;;;0.70;0.70;;;17.80;95.10;;;;;;5027935;28;20435;-58
2022/08/10 02:05:24;;;;;;;0.60;0.60;;;17.90;95.20;;;;;;5036296;28;20434;-58
2022/08/10 02:07:53;;;;;;;0.70;0.70;;;17.90;95.20;;;;;;5030681;28;20489;-59
2022/08/10 02:10:25;;;;;;;0.43;0.43;;;17.80;95.20;;;;;;5030372;28;20633;-58
2022/08/10 02:12:56;;;;;;;0.60;0.60;;;17.80;95.30;;;;;;5031297;28;20441;-59
2022/08/10 02:15:26;;;;;;;0.70;0.70;;;17.80;95.40;;;;;;5030594;28;20465;-58
2022/08/10 02:17:58;;;;;;;0.50;0.40;;;17.70;95.50;;;;;;5029954;28;20905;-59
2022/08/10 02:20:34;;;;;;;0.52;0.52;;;17.70;95.50;;;;;;5031641;28;20438;-59
2022/08/10 02:23:07;;;;;;;0.63;0.57;;;17.70;95.60;;;;;;5030933;28;20992;-59
2022/08/10 02:25:36;;;;;;;1.65;0.65;;;17.60;95.60;;;;;;5014128;28;20435;-59
2022/08/10 02:28:14;;;;;;;0.60;0.60;;;17.60;95.80;;;;;;5023503;28;20516;-59
2022/08/10 02:31:00;;;;;;;0.98;0.98;;;17.50;95.80;;;;;;5029928;28;20439;-59
2022/08/10 02:33:28;;;;;;;0.60;0.60;;;17.50;95.90;;;;;;5031003;28;20514;-59
2022/08/10 02:35:58;;;;;;;0.70;0.70;;;17.40;95.90;;;;;;5030765;28;20485;-59
2022/08/10 02:38:52;;;;;;;0.70;0.70;;;17.40;96.10;;;;;;5031202;28;20439;-58
2022/08/10 02:41:34;;;;;;;0.80;0.77;;;17.30;96.00;;;;;;5031161;28;20427;-59
2022/08/10 02:44:24;;;;;;;0.50;0.50;;;;;;;;;;5030467;28;20588;-59
2022/08/10 02:47:34;;;;;;;0.55;0.55;;;17.20;96.10;;;;;;5028068;28;20423;-58
2022/08/10 02:50:34;;;;;;;0.60;0.60;;;17.20;96.60;;;;;;5030868;28;20501;-59
2022/08/10 02:53:10;;;;;;;0.90;0.77;;;17.20;96.50;;;;;;5030508;28;20434;-59
2022/08/10 02:56:13;;;;;;;0.90;0.90;;;17.20;96.50;;;;;;5030707;28;20430;-59
2022/08/10 02:59:04;;;;;;;0.70;0.70;;;17.20;96.50;;;;;;5030817;28;21144;-59
2022/08/10 03:01:36;;;;;;;0.85;0.85;;;17.10;96.60;;;;;;5010367;28;20444;-58
2022/08/10 03:04:06;;;;;;;0.60;0.60;;;17.10;96.70;;;;;;5025219;28;20448;-58
2022/08/10 03:06:38;;;;;;;0.50;0.50;;;17.00;96.70;;;;;;5010514;28;21107;-58
2022/08/10 03:09:08;;;;;;;0.60;0.53;;;17.00;96.80;;;;;;5010969;28;20549;-59
2022/08/10 03:11:37;;;;;;;0.73;0.73;;;16.90;96.80;;;;;;5010807;28;20536;-58
2022/08/10 03:14:25;;;;;;;0.80;0.80;;;16.90;96.90;;;;;;5009797;28;20519;-59
2022/08/10 03:16:54;;;;;;;0.80;0.80;;;16.90;97.10;;;;;;5010659;28;20439;-59
2022/08/10 03:19:29;;;;;;;0.80;0.80;;;16.90;97.10;;;;;;5010495;28;20514;-58
2022/08/10 03:22:17;;;;;;;0.50;0.50;;;16.80;97.10;;;;;;5036560;28;20432;-58
2022/08/10 03:24:45;;;;;;;0.68;0.68;;;16.80;97.20;;;;;;5010025;28;20467;-58
2022/08/10 03:27:16;;;;;;;0.75;0.75;;;16.70;97.30;;;;;;5017555;28;20431;-59
2022/08/10 03:29:43;;;;;;;0.60;0.60;;;16.70;97.40;;;;;;5030451;28;20423;-59
2022/08/10 03:32:32;;;;;;;0.65;0.65;;;16.70;97.50;;;;;;5027791;28;20764;-58
2022/08/10 03:35:00;;;;;;;0.98;0.88;;;16.60;97.50;;;;;;5029765;28;20489;-58
2022/08/10 03:37:26;;;;;;;0.73;0.73;;;16.60;97.60;;;;;;5030079;28;20956;-58
2022/08/10 03:39:56;;;;;;;0.70;0.70;;;16.60;97.70;;;;;;5030261;28;20454;-58
2022/08/10 03:42:24;;;;;;;0.75;0.75;;;16.50;97.70;;;;;;5030306;28;20476;-58
2022/08/10 03:44:52;;;;;;;0.80;0.80;;;16.40;97.80;;;;;;5029548;28;20437;-58
2022/08/10 03:47:20;;;;;;;0.70;0.70;;;16.30;98.00;;;;;;5015985;28;21106;-58
2022/08/10 03:49:49;;;;;;;0.70;0.70;;;16.30;98.10;;;;;;5009845;28;20507;-59
2022/08/10 03:52:19;;;;;;;0.70;0.70;;;16.20;98.20;;;;;;5010555;28;20428;-59
2022/08/10 03:54:46;;;;;;;0.65;0.65;;;16.20;98.20;;;;;;5026929;28;20510;-59
2022/08/10 03:57:13;;;;;;;1.20;0.77;;;16.20;98.30;;;;;;5029962;28;20566;-59
2022/08/10 03:59:40;;;;;;;0.70;0.70;;;16.20;98.40;;;;;;5029933;28;21085;-59
2022/08/10 04:02:08;;;;;;;0.70;0.70;;;16.10;98.50;;;;;;5029584;28;20435;-59
2022/08/10 04:04:55;;;;;;;0.95;0.60;;;16.10;98.60;;;;;;5027244;28;20425;-59
2022/08/10 04:07:22;;;;;;;0.65;0.65;;;16.10;98.50;;;;;;5029703;28;20437;-59
2022/08/10 04:09:49;;;;;;;0.60;0.60;;;16.00;98.70;;;;;;5029979;28;20505;-59
2022/08/10 04:12:22;;;;;;;0.70;0.70;;;16.00;98.80;;;;;;5026321;28;20424;-58
2022/08/10 04:14:49;;;;;;;0.60;0.60;;;16.00;98.80;;;;;;5009539;28;20432;-58
2022/08/10 04:17:24;;;;;;;0.70;0.70;;;16.00;99.00;;;;;;5012118;28;20439;-58
2022/08/10 04:20:21;;;;;;;0.70;0.70;;;16.00;99.00;;;;;;5036235;28;20418;-58
2022/08/10 04:22:55;;;;;;;0.50;0.50;;;16.00;99.00;;;;;;5029630;28;20433;-58
2022/08/10 04:25:23;;;;;;;0.68;0.68;;;16.00;99.10;;;;;;5029582;28;20910;-59
2022/08/10 04:27:51;;;;;;;0.60;0.60;;;16.00;99.10;;;;;;5029652;28;20455;-59
2022/08/10 04:30:18;;;;;;;0.80;0.80;;;16.00;99.10;;;;;;5029639;28;20886;-58
2022/08/10 04:32:48;;;;;;;0.57;0.57;;;16.00;99.20;;;;;;5030971;28;20427;-59
2022/08/10 04:35:19;;;;;;;1.10;0.63;;;16.10;99.30;;;;;;5031930;28;20492;-58
2022/08/10 04:37:48;;;;;;;0.70;0.70;;;16.10;99.20;;;;;;5033481;28;20489;-58
2022/08/10 04:40:16;;;;;;;0.80;0.70;;;16.20;99.20;;;;;;5031988;28;20996;-58
2022/08/10 04:43:01;;;;;;;0.70;0.70;;;16.20;99.20;;;;;;5032883;28;20431;-59
2022/08/10 04:45:41;;;;;;;0.90;0.80;;;16.30;99.30;;;;;;5033094;28;20477;-58
2022/08/10 04:48:19;;;;;;;0.85;0.85;;;16.30;99.20;;;;;;5033271;28;20426;-59
2022/08/10 04:51:06;;;;;;;0.80;0.80;;;16.40;99.10;;;;;;5046111;28;20418;-59
2022/08/10 04:53:41;;;;;;;1.00;1.00;;;16.50;99.10;;;;;;5032663;28;20439;-58
2022/08/10 04:56:29;;;;;;;0.68;0.68;;;16.60;99.10;;;;;;5031990;28;20430;-59
2022/08/10 04:58:58;;;;;;;0.70;0.70;;;16.70;99.10;;;;;;5019553;28;20437;-58
2022/08/10 05:01:25;;;;;;;0.68;0.68;;;16.80;99.10;;;;;;5052852;28;20508;-58
2022/08/10 05:03:52;;;;;;;0.60;0.60;;;16.90;98.90;;;;;;5052075;28;20437;-58
2022/08/10 05:06:40;;;;;;;0.70;0.70;;;17.00;98.70;;;;;;5030630;28;20474;-58
2022/08/10 05:09:07;;;;;;;1.10;1.10;;;17.10;98.70;;;;;;5012811;28;21174;-58
2022/08/10 05:11:34;;;;;;;0.75;0.75;;;17.20;98.70;;;;;;5012697;28;20472;-58
2022/08/10 05:14:01;;;;;;;0.70;0.70;;;17.30;98.80;;;;;;5012378;28;20436;-58
2022/08/10 05:16:28;;;;;;;0.80;0.80;;;17.40;98.60;;;;;;5016568;28;20481;-58
2022/08/10 05:18:58;;;;;;;0.85;0.82;;;17.40;98.50;;;;;;5032563;28;20431;-58
2022/08/10 05:21:24;;;;;;;0.88;0.88;;;17.50;98.50;;;;;;5032090;28;20911;-58
2022/08/10 05:24:11;;;;;;;0.90;0.90;;;17.70;98.20;;;;;;5032076;28;20446;-58
2022/08/10 05:26:38;;;;;;;0.90;0.90;;;17.90;98.20;;;;;;5017391;28;20433;-58
2022/08/10 05:29:25;;;;;;;1.60;0.67;;;18.00;98.00;;;;;;5012846;28;20519;-58
2022/08/10 05:31:52;;;;;;;0.70;0.70;;;18.20;98.00;;;;;;5012422;28;20432;-58
2022/08/10 05:34:23;;;;;;;0.80;0.80;;;18.50;98.00;;;;;;5011917;28;20523;-58
2022/08/10 05:36:56;;;;;;;0.70;0.70;;;19.10;97.60;;;;;;5012856;28;20464;-58
2022/08/10 05:39:26;;;;;;;0.60;0.60;;;20.00;96.80;;;;;;5011855;28;20857;-59
2022/08/10 05:42:00;;;;;;;0.55;0.55;;;20.80;95.90;;;;;;5014272;28;20531;-59
2022/08/10 05:44:28;;;;;;;0.50;0.50;;;21.10;95.20;;;;;;5031412;28;20434;-59
2022/08/10 05:46:57;;;;;;;0.65;0.65;;;21.10;95.00;;;;;;5030771;28;20431;-59
2022/08/10 05:49:24;;;;;;;0.80;0.80;;;21.00;95.10;;;;;;5032007;28;20447;-59
2022/08/10 05:51:51;;;;;;;0.60;0.60;;;21.30;95.20;;;;;;5018541;28;20428;-59
2022/08/10 05:54:18;;;;;;;0.57;0.57;;;21.90;94.70;;;;;;5011692;28;20432;-59
2022/08/10 05:56:47;;;;;;;0.60;0.60;;;22.30;93.80;;;;;;5012016;28;20438;-59
2022/08/10 05:59:32;;;;;;;0.50;0.50;;;23.00;93.70;;;;;;5012139;28;20523;-59
2022/08/10 06:02:30;;;;;;;1.00;0.90;;;23.70;92.80;;;;;;5011750;28;20433;-60
2022/08/10 06:05:10;;;;;;;0.80;0.80;;;24.00;92.10;;;;;;5011260;28;20459;-59
2022/08/10 06:08:08;;;;;;;0.60;0.60;;;24.30;91.90;;;;;;5011947;28;20428;-59
2022/08/10 06:10:36;;;;;;;0.60;0.60;;;24.30;91.60;;;;;;5021378;28;20426;-58
2022/08/10 06:16:31;;;;;;;0.80;0.80;;;24.70;91.10;;;;;;5043279;28;20506;-59
2022/08/10 06:19:00;;;;;;;0.60;0.60;;;25.10;90.80;;;;;;5028519;28;20435;-58
2022/08/10 06:21:27;;;;;;;0.60;0.60;;;25.20;90.60;;;;;;5030158;28;20529;-59
2022/08/10 06:23:55;;;;;;;0.60;0.60;;;25.60;90.60;;;;;;5032546;28;20433;-58
2022/08/10 06:26:25;;;;;;;0.70;0.70;;;25.50;90.00;;;;;;5027668;28;20455;-61
2022/08/10 06:29:13;;;;;;;0.60;0.60;;;25.60;90.00;;;;;;5011772;28;20437;-58
2022/08/10 06:31:47;;;;;;;1.00;0.70;;;25.40;89.60;;;;;;5011186;28;20431;-58
2022/08/10 06:34:45;;;;;;;0.75;0.75;;;25.40;89.70;;;;;;5010589;28;20972;-59
2022/08/10 06:37:15;;;;;;;0.60;0.60;;;25.70;89.50;;;;;;5032584;28;20948;-58
2022/08/10 06:39:43;;;;;;;0.60;0.60;;;26.10;89.00;;;;;;5030973;28;20426;-59
2022/08/10 06:42:19;;;;;;;0.70;0.70;;;26.20;88.40;;;;;;5014681;28;20440;-59
2022/08/10 06:45:13;;;;;;;0.57;0.57;;;25.90;88.30;;;;;;5010888;28;20447;-59
2022/08/10 06:47:54;;;;;;;0.50;0.50;;;26.00;88.10;;;;;;5010361;28;20433;-59
2022/08/10 06:50:28;;;;;;;0.70;0.70;;;26.30;88.00;;;;;;5011374;28;20456;-59
2022/08/10 06:53:16;;;;;;;0.60;0.60;;;26.70;87.50;;;;;;5009845;28;20949;-59
2022/08/10 06:55:48;;;;;;;0.55;0.55;;;27.20;88.10;;;;;;5011231;28;20437;-59
2022/08/10 06:58:25;;;;;;;0.80;0.80;;;27.40;86.80;;;;;;5011141;28;20444;-59
2022/08/10 07:00:55;;;;;;;0.50;0.50;;;28.00;85.70;;;;;;5011108;28;20492;-59
2022/08/10 07:03:30;;;;;;;0.52;0.52;;;27.90;85.90;;;;;;5010386;28;20831;-59
2022/08/10 07:05:57;;;;;;;0.70;0.70;;;27.90;85.10;;;;;;5011065;28;20515;-59
2022/08/10 07:08:26;;;;;;;0.50;0.50;;;28.10;84.30;;;;;;5019080;28;20475;-60
2022/08/10 07:10:54;;;;;;;1.83;0.55;;;27.70;84.30;;;;;;5030233;28;20771;-59
2022/08/10 07:13:24;;;;;;;0.70;0.70;;;28.00;84.00;;;;;;5015823;28;20479;-59
2022/08/10 07:16:12;;;;;;;0.60;0.60;;;28.30;83.90;;;;;;5017775;28;20921;-59
2022/08/10 07:18:41;;;;;;;0.60;0.60;;;28.40;83.20;;;;;;5030683;28;20517;-59
2022/08/10 07:21:09;;;;;;;0.80;0.80;;;27.80;84.00;;;;;;5030113;28;20434;-59
2022/08/10 07:23:37;;;;;;;0.60;0.60;;;28.20;84.00;;;;;;5030156;28;20789;-60
2022/08/10 07:26:26;;;;;;;0.50;0.50;;;28.30;83.20;;;;;;5030231;28;20423;-59
2022/08/10 07:28:53;;;;;;;0.60;0.60;;;28.20;83.60;;;;;;5028723;28;20439;-59
2022/08/10 07:31:21;;;;;;;1.80;0.45;;;28.80;83.90;;;;;;5030267;28;20427;-59
2022/08/10 07:34:10;;;;;;;0.50;0.50;;;29.20;82.10;;;;;;5029981;28;20495;-60
2022/08/10 07:36:39;;;;;;;0.60;0.60;;;29.20;81.60;;;;;;5029999;28;20450;-59
2022/08/10 07:39:08;;;;;;;0.52;0.52;;;29.00;82.10;;;;;;5059947;28;20514;-59
2022/08/10 07:41:41;;;;;;;0.60;0.60;;;28.90;82.50;;;;;;5010478;28;20433;-59
2022/08/10 07:44:11;;;;;;;0.52;0.52;;;28.40;82.20;;;;;;5008945;28;20429;-59
2022/08/10 07:46:44;;;;;;;0.70;0.70;;;28.50;82.90;;;;;;5010158;28;20460;-59
2022/08/10 07:49:17;;;;;;;0.70;0.70;;;28.90;82.30;;;;;;5010017;28;20436;-59
2022/08/10 07:51:50;;;;;;;0.70;0.70;;;29.10;81.40;;;;;;5009821;28;20428;-59
2022/08/10 07:54:26;;;;;;;0.50;0.50;;;29.20;81.50;;;;;;5009705;28;20436;-59
2022/08/10 07:56:58;;;;;;;1.00;0.63;;;29.30;81.10;;;;;;5009775;28;20531;-59
2022/08/10 07:59:36;;;;;;;0.63;0.63;;;29.60;82.30;;;;;;5009710;28;20531;-60
2022/08/10 08:02:06;;;;;;;0.60;0.60;;;29.90;81.20;;;;;;5010250;28;20494;-59
2022/08/10 08:04:34;;;;;;;0.60;0.60;;;30.00;80.30;;;;;;5010004;28;20443;-60
2022/08/10 08:07:03;;;;;;;0.75;0.75;;;30.30;79.40;;;;;;5014307;28;20424;-59
2022/08/10 08:09:32;;;;;;;0.60;0.60;;;30.50;79.60;;;;;;5014030;28;20428;-59
2022/08/10 08:12:00;;;;;;;0.50;0.50;;;30.20;79.50;;;;;;5013474;28;20498;-59
2022/08/10 08:14:27;;;;;;;0.50;0.50;;;30.10;80.50;;;;;;5028066;28;20440;-59
2022/08/10 08:16:58;;;;;;;0.60;0.60;;;30.20;80.10;;;;;;5014068;28;20523;-60
2022/08/10 08:19:27;;;;;;;0.60;0.60;;;30.50;79.50;;;;;;5019920;28;20456;-60
2022/08/10 08:22:09;;;;;;;0.60;0.60;;;30.70;79.10;;;;;;5013926;28;21052;-59
2022/08/10 08:24:57;;;;;;;0.60;0.60;;;30.80;79.20;;;;;;5039826;28;20460;-60
2022/08/10 08:27:26;;;;;;;0.50;0.50;;;31.00;78.80;;;;;;5013915;28;20434;-60
2022/08/10 08:29:53;;;;;;;0.63;0.63;;;31.20;78.90;;;;;;5013818;28;20432;-59
2022/08/10 08:32:23;;;;;;;0.60;0.60;;;30.70;78.50;;;;;;5013850;28;20428;-59
2022/08/10 08:34:58;;;;;;;0.50;0.50;;;30.00;78.70;;;;;;5012287;28;20433;-60
2022/08/10 08:37:29;;;;;;;0.70;0.70;;;30.30;79.40;;;;;;5013396;28;21068;-60
2022/08/10 08:40:25;;;;;;;0.50;0.50;;;30.20;78.90;;;;;;5022897;28;20786;-60
2022/08/10 08:43:10;;;;;;;0.40;0.40;;;29.90;79.30;;;;;;5032998;28;20434;-60
2022/08/10 08:46:12;;;;;;;0.60;0.60;;;29.90;79.60;;;;;;5029892;28;20519;-59
2022/08/10 08:49:17;;;;;;;0.57;0.57;;;29.90;80.20;;;;;;5013033;28;20436;-59
2022/08/10 08:52:33;;;;;;;0.70;0.70;;;30.20;79.20;;;;;;5013364;28;20425;-59
2022/08/10 08:55:26;;;;;;;0.50;0.50;;;30.30;79.50;;;;;;5012642;28;20432;-59
2022/08/10 08:58:27;;;;;;;0.47;0.47;;;30.10;78.40;;;;;;5012336;28;20778;-60
2022/08/10 09:01:04;;;;;;;0.60;0.60;;;30.30;80.20;;;;;;5013024;28;20436;-60
2022/08/10 09:04:09;;;;;;;0.50;0.50;;;30.70;78.70;;;;;;5011342;28;20505;-59
2022/08/10 09:07:09;;;;;;;0.70;0.50;;;30.90;79.40;;;;;;5012826;28;20510;-59
2022/08/10 09:10:05;;;;;;;0.47;0.47;;;30.80;78.40;;;;;;5012297;28;20512;-59
2022/08/10 09:12:48;;;;;;;0.50;0.50;;;30.10;79.20;;;;;;5012754;28;20448;-59
2022/08/10 09:15:40;;;;;;;0.47;0.47;;;29.60;78.70;;;;;;5032491;28;20462;-59
2022/08/10 09:18:18;;;;;;;0.35;0.35;;;29.30;79.40;;;;;;5029226;28;20465;-60
2022/08/10 09:21:22;;;;;;;0.60;0.50;;;29.30;80.60;;;;;;5012731;28;20449;-60
2022/08/10 09:24:04;;;;;;;0.55;0.55;;;29.70;79.90;;;;;;5011835;28;20431;-59
2022/08/10 09:26:41;;;;;;;0.52;0.52;;;29.20;79.80;;;;;;5012609;28;20522;-59
2022/08/10 09:29:18;;;;;;;0.50;0.50;;;29.70;80.00;;;;;;5011502;28;20499;-61
2022/08/10 09:31:53;;;;;;;0.50;0.50;;;28.90;79.60;;;;;;5012727;28;20428;-59
2022/08/10 09:34:58;;;;;;;0.50;0.50;;;29.60;79.90;;;;;;5012035;28;20460;-59
2022/08/10 09:38:21;;;;;;;0.40;0.40;;;30.40;78.90;;;;;;5012015;28;20432;-60
2022/08/10 09:41:06;;;;;;;0.40;0.40;;;31.00;78.20;;;;;;5031810;28;20445;-59
2022/08/10 09:44:03;;;;;;;0.40;0.40;;;31.50;76.60;;;;;;5030816;28;20453;-60
2022/08/10 09:46:53;;;;;;;0.52;0.52;;;31.00;76.70;;;;;;5031914;28;20881;-60
2022/08/10 09:49:37;;;;;;;0.40;0.40;;;31.20;76.20;;;;;;5047061;28;20433;-60
2022/08/10 09:52:51;;;;;;;0.50;0.50;;;30.20;76.10;;;;;;5023098;28;20441;-59
2022/08/10 09:56:03;;;;;;;0.50;0.50;;;30.20;77.40;;;;;;5011885;28;20437;-60
2022/08/10 09:59:23;;;;;;;0.53;0.53;;;31.00;77.60;;;;;;5008991;28;20462;-59
2022/08/10 10:02:49;;;;;;;0.52;0.52;;;31.10;77.40;;;;;;5006298;28;20431;-60
2022/08/10 10:05:45;;;;;;;0.50;0.50;;;31.80;76.00;;;;;;4950256;29;20445;-60
2022/08/10 10:08:45;;;;;;;0.60;0.40;;;31.60;75.40;;;;;;4950735;29;20471;-59
2022/08/10 10:11:26;;;;;;;0.40;0.40;;;31.10;75.20;;;;;;4948807;29;20445;-60
2022/08/10 10:14:23;;;;;;;0.50;0.50;;;31.20;74.00;;;;;;4950192;29;20434;-60
2022/08/10 10:17:02;;;;;;;0.40;0.40;;;31.30;74.20;;;;;;4948674;28;20433;-60
2022/08/10 10:20:01;;;;;;;0.57;0.57;;;30.90;73.00;;;;;;4949640;29;20468;-59
2022/08/10 10:22:50;;;;;;;0.50;0.50;;;30.10;73.70;;;;;;4966358;28;20437;-60
2022/08/10 10:25:50;;;;;;;0.55;0.55;;;30.20;76.30;;;;;;4948833;29;20434;-60
2022/08/10 10:28:46;;;;;;;0.43;0.43;;;31.00;75.10;;;;;;4933102;28;20434;-60
2022/08/10 10:31:40;;;;;;;0.50;0.50;;;31.00;74.90;;;;;;4969359;28;20436;-60
2022/08/10 10:34:24;;;;;;;0.40;0.40;;;30.90;75.20;;;;;;4969024;28;20436;-59
2022/08/10 10:36:51;;;;;;;0.50;0.50;;;31.50;75.40;;;;;;4969373;28;20519;-60
2022/08/10 10:39:23;;;;;;;0.40;0.40;;;31.50;74.90;;;;;;4995397;28;20957;-60
2022/08/10 10:42:15;;;;;;;0.50;0.50;;;32.20;75.00;;;;;;5030786;28;20920;-60
2022/08/10 10:45:19;;;;;;;0.50;0.50;;;31.50;72.90;;;;;;5023053;28;20429;-60
2022/08/10 10:48:01;;;;;;;0.60;0.60;;;30.50;73.90;;;;;;5061792;28;20425;-59
2022/08/10 10:50:40;;;;;;;0.47;0.47;;;30.40;75.70;;;;;;5030484;28;20430;-59
2022/08/10 10:53:26;;;;;;;0.47;0.47;;;31.20;74.50;;;;;;5030197;28;20427;-60
2022/08/10 10:56:38;;;;;;;0.40;0.40;;;31.10;74.40;;;;;;5030488;28;21102;-60
2022/08/10 10:59:08;;;;;;;0.40;0.40;;;31.20;73.50;;;;;;5027712;28;20501;-59
2022/08/10 11:02:35;;;;;;;0.38;0.38;;;31.40;72.90;;;;;;5029703;28;20423;-59
2022/08/10 11:05:19;;;;;;;0.50;0.50;;;30.80;72.40;;;;;;5032415;28;20463;-60
2022/08/10 11:08:02;;;;;;;0.50;0.50;;;31.40;72.90;;;;;;5026412;28;20433;-59
2022/08/10 11:10:37;;;;;;;0.50;0.50;;;32.30;71.00;;;;;;5026781;28;20456;-60
2022/08/10 11:13:39;;;;;;;0.50;0.50;;;32.50;70.10;;;;;;5009418;28;20436;-60
2022/08/10 11:16:35;;;;;;;0.50;0.40;;;31.90;71.30;;;;;;5009736;28;20468;-60
2022/08/10 11:19:28;;;;;;;0.45;0.45;;;31.20;71.10;;;;;;5010500;28;20494;-59
2022/08/10 11:22:43;;;;;;;0.40;0.40;;;31.50;72.90;;;;;;5010500;28;20491;-60
2022/08/10 11:25:19;;;;;;;0.53;0.53;;;31.90;71.30;;;;;;5009438;28;20917;-59
2022/08/10 11:28:06;;;;;;;0.50;0.50;;;32.60;70.10;;;;;;5010213;28;21189;-60
2022/08/10 11:30:55;;;;;;;0.60;0.60;;;33.20;70.10;;;;;;5010402;28;20486;-59
2022/08/10 11:33:45;;;;;;;0.50;0.50;;;32.80;68.70;;;;;;5010869;28;20533;-60
2022/08/10 11:36:46;;;;;;;0.60;0.60;;;32.00;69.10;;;;;;5029876;28;20422;-61
2022/08/10 11:39:25;;;;;;;0.50;0.50;;;31.70;70.10;;;;;;5029554;28;20519;-59
2022/08/10 11:42:14;;;;;;;0.43;0.43;;;31.90;70.40;;;;;;5061462;28;20431;-60
2022/08/10 11:45:15;;;;;;;0.43;0.43;;;32.30;68.40;;;;;;5009181;28;20464;-60
2022/08/10 11:48:33;;;;;;;0.43;0.43;;;32.30;69.10;;;;;;5010247;28;20451;-60
2022/08/10 11:51:51;;;;;;;0.50;0.50;;;32.80;69.30;;;;;;5026747;28;20770;-60
2022/08/10 11:54:45;;;;;;;0.40;0.40;;;32.10;69.40;;;;;;5026136;28;20565;-60
2022/08/10 11:57:13;;;;;;;0.60;0.60;;;32.30;69.20;;;;;;5026488;28;20430;-60
2022/08/10 11:59:57;;;;;;;0.40;0.40;;;32.40;69.50;;;;;;5026779;28;20430;-60
2022/08/10 12:02:38;;;;;;;0.50;0.50;;;32.10;69.70;;;;;;5026837;28;20430;-60
2022/08/10 12:05:22;;;;;;;0.40;0.40;;;32.20;70.00;;;;;;5026163;28;20848;-59
2022/08/10 12:08:10;;;;;;;0.43;0.43;;;31.90;69.20;;;;;;5005415;28;20413;-59
2022/08/10 12:11:00;;;;;;;0.40;0.40;;;31.70;68.90;;;;;;5007299;28;20523;-59
2022/08/10 12:13:34;;;;;;;0.40;0.40;;;31.90;68.30;;;;;;5006571;28;20431;-60
2022/08/10 12:16:13;;;;;;;0.52;0.52;;;32.20;67.90;;;;;;5006601;28;20433;-60
2022/08/10 12:19:01;;;;;;;0.50;0.50;;;32.30;68.20;;;;;;5033210;28;20443;-60
2022/08/10 12:21:51;;;;;;;0.40;0.40;;;32.20;67.70;;;;;;5032016;28;20505;-60
2022/08/10 12:24:25;;;;;;;0.40;0.40;;;32.50;68.30;;;;;;5026013;28;20426;-60
2022/08/10 12:27:14;;;;;;;0.40;0.40;;;32.30;67.70;;;;;;5026895;28;20430;-60
2022/08/10 12:30:03;;;;;;;0.50;0.50;;;32.40;68.30;;;;;;5044606;28;20430;-60
2022/08/10 12:32:30;;;;;;;0.50;0.50;;;32.70;68.50;;;;;;5024156;28;20455;-59
2022/08/10 12:35:30;;;;;;;1.02;0.50;;;32.80;69.20;;;;;;5009975;28;20488;-59
2022/08/10 12:38:08;;;;;;;0.30;0.30;;;32.60;68.30;;;;;;5009039;28;20460;-60
2022/08/10 12:40:56;;;;;;;0.30;0.30;;;32.80;68.20;;;;;;5013253;28;20527;-61
2022/08/10 12:43:31;;;;;;;0.40;0.40;;;32.80;67.40;;;;;;5028740;28;20449;-59
2022/08/10 12:47:00;;;;;;;0.45;0.45;;;33.40;68.20;;;;;;5029072;28;20430;-60
2022/08/10 12:49:51;;;;;;;0.40;0.35;;;32.50;68.10;;;;;;5029193;28;20423;-60
2022/08/10 12:53:04;;;;;;;0.40;0.40;;;32.30;68.50;;;;;;5021057;28;20425;-60
2022/08/10 12:55:36;;;;;;;0.40;0.40;;;32.40;67.70;;;;;;5012467;28;20436;-60
2022/08/10 12:58:05;;;;;;;0.50;0.50;;;32.80;67.20;;;;;;5013284;28;20440;-60
2022/08/10 13:00:54;;;;;;;0.57;0.57;;;32.30;67.10;;;;;;5011814;28;20432;-60
2022/08/10 13:03:46;;;;;;;0.50;0.50;;;32.50;67.20;;;;;;5012184;28;20429;-60
2022/08/10 13:06:35;;;;;;;0.40;0.40;;;32.10;67.90;;;;;;5012779;28;20921;-60
2022/08/10 13:09:07;;;;;;;0.40;0.40;;;32.00;67.90;;;;;;5030938;28;20449;-59
2022/08/10 13:11:49;;;;;;;0.40;0.40;;;32.20;68.40;;;;;;5032384;28;20462;-59
2022/08/10 13:14:48;;;;;;;0.40;0.40;;;32.50;67.60;;;;;;5032005;28;20422;-60
2022/08/10 13:17:31;;;;;;;0.40;0.40;;;32.40;66.80;;;;;;5022114;28;20432;-59
2022/08/10 13:20:28;;;;;;;0.40;0.40;;;32.50;67.40;;;;;;5012256;28;21004;-60
2022/08/10 13:23:00;;;;;;;0.50;0.50;;;32.50;67.10;;;;;;5012397;28;20522;-59
2022/08/10 13:25:37;;;;;;;0.50;0.50;;;31.70;67.80;;;;;;5012519;28;20524;-59
2022/08/10 13:28:13;;;;;;;0.50;0.50;;;31.50;67.00;;;;;;5010909;28;20491;-59
2022/08/10 13:31:09;;;;;;;0.50;0.50;;;32.00;69.10;;;;;;5012451;28;20430;-60
2022/08/10 13:33:49;;;;;;;0.70;0.70;;;32.40;67.20;;;;;;5025197;28;20513;-60
2022/08/10 13:36:41;;;;;;;0.47;0.47;;;32.20;67.30;;;;;;5014055;28;20938;-60
2022/08/10 13:39:10;;;;;;;0.70;0.40;;;32.10;67.80;;;;;;5011972;28;20922;-60
2022/08/10 13:41:41;;;;;;;0.43;0.43;;;32.60;66.70;;;;;;5012467;28;20821;-59
2022/08/10 13:44:13;;;;;;;0.40;0.40;;;32.80;65.70;;;;;;5011408;28;20515;-59
2022/08/10 13:46:46;;;;;;;0.40;0.40;;;33.10;65.90;;;;;;5011894;28;20515;-60
2022/08/10 13:49:14;;;;;;;0.40;0.40;;;33.80;65.60;;;;;;5012055;28;20428;-60
2022/08/10 13:51:41;;;;;;;0.60;0.60;;;33.80;66.70;;;;;;5011749;28;20435;-60
2022/08/10 13:54:35;;;;;;;0.40;0.40;;;34.70;65.00;;;;;;5023532;28;20446;-60
2022/08/10 13:57:06;;;;;;;0.50;0.50;;;35.60;64.30;;;;;;5046835;28;20430;-60
2022/08/10 13:59:34;;;;;;;0.70;0.70;;;36.30;64.00;;;;;;5031608;28;20445;-60